Time;durP1;ratioP1;P1;durP2;ratioP2;P2;SDS_P1;SDS_P2;PMS_P1;PMS_P2;Temp;Humidity;BMP_temperature;BMP_pressure;BME280_temperature;BME280_humidity;BME280_pressure;Samples;Min_cycle;Max_cycle;Signal;HPM_P1;HPM_P2
2022/12/17 14:05:32;;;;;;;49.10;18.50;;;;;;;-0.96;83.71;101243.60;630544;1347;545040;-84
2022/12/17 14:20:35;;;;;;;44.60;19.50;;;;;;;-1.00;84.23;101255.90;640353;1323;138826;-83
2022/12/17 14:35:39;;;;;;;70.30;25.60;;;;;;;-0.99;84.60;101281.11;642481;1322;138896;-83
2022/12/17 14:50:53;;;;;;;145.20;46.40;;;;;;;-0.88;84.48;101295.63;642536;1322;138873;-84
2022/12/17 15:06:01;;;;;;;82.90;35.40;;;;;;;-0.85;84.53;101310.48;640398;1319;139202;-84
2022/12/17 15:21:04;;;;;;;351.10;107.60;;;;;;;-0.71;84.86;101320.98;638784;1323;138639;-84
2022/12/17 15:36:10;;;;;;;508.30;197.00;;;;;;;-0.76;84.82;101327.95;639835;1323;139180;-84
2022/12/17 15:51:14;;;;;;;130.50;47.30;;;;;;;-0.92;84.72;101348.27;640346;1323;139139;-83
2022/12/17 16:06:22;;;;;;;157.40;57.00;;;;;;;-1.03;85.46;101370.33;639369;1324;140279;-84
2022/12/17 16:21:25;;;;;;;216.90;60.30;;;;;;;-0.93;85.70;101375.10;638926;1322;139117;-84
2022/12/17 16:36:29;;;;;;;324.70;93.40;;;;;;;-0.87;85.85;101386.63;640441;1323;139198;-84
2022/12/17 16:51:33;;;;;;;426.80;144.40;;;;;;;-0.75;85.96;101390.63;641136;1323;140193;-84
2022/12/17 17:06:43;;;;;;;165.80;59.10;;;;;;;-0.72;85.93;101389.39;642061;1317;139351;-83
2022/12/17 17:21:52;;;;;;;176.40;59.10;;;;;;;-0.62;86.34;101406.33;641073;1323;139666;-84
2022/12/17 17:36:56;;;;;;;65.10;26.50;;;;;;;-0.33;85.87;101425.92;640463;1317;139556;-84
2022/12/17 17:52:00;;;;;;;83.60;30.40;;;;;;;-0.48;86.33;101426.97;638629;1320;139122;-84
2022/12/17 18:07:13;;;;;;;89.70;35.00;;;;;;;-0.53;87.12;101430.54;638785;1322;139484;-84
2022/12/17 18:22:32;;;;;;;86.50;31.50;;;;;;;-0.56;87.34;101464.80;639300;1322;139106;-84
2022/12/17 18:37:37;;;;;;;53.20;21.60;;;;;;;-0.64;87.55;101486.13;639605;1322;139071;-85
2022/12/17 18:52:40;;;;;;;94.20;32.80;;;;;;;-0.70;87.91;101505.50;646313;1316;139718;-84
2022/12/17 19:07:44;;;;;;;107.80;36.20;;;;;;;-0.74;88.12;101511.93;644940;1313;139030;-85
2022/12/17 19:22:48;;;;;;;146.20;52.30;;;;;;;-0.72;88.29;101523.73;644899;1312;139088;-83
2022/12/17 19:37:52;;;;;;;73.40;27.00;;;;;;;-0.75;89.28;101530.52;659294;1315;139634;-82
2022/12/17 19:52:55;;;;;;;94.80;30.40;;;;;;;-0.84;89.18;101540.48;658682;1302;139725;-82
2022/12/17 20:07:59;;;;;;;74.70;23.50;;;;;;;-0.82;88.98;101559.52;658708;1311;139019;-82
2022/12/17 20:23:03;;;;;;;94.80;29.30;;;;;;;-0.91;89.12;101577.73;658879;1307;139183;-82
2022/12/17 20:38:07;;;;;;;109.90;38.70;;;;;;;-0.90;89.56;101601.59;658969;1314;139683;-82
2022/12/17 20:53:10;;;;;;;123.30;42.00;;;;;;;-0.93;90.12;101616.58;658770;1315;139263;-82
2022/12/17 21:08:15;;;;;;;108.00;34.20;;;;;;;-0.82;90.46;101624.11;660805;1312;139601;-82
2022/12/17 21:23:18;;;;;;;95.10;28.20;;;;;;;-0.77;90.48;101633.13;660610;1308;139110;-83
2022/12/17 21:38:26;;;;;;;103.80;34.90;;;;;;;-0.87;90.88;101643.61;660941;1304;139077;-82
2022/12/17 21:53:29;;;;;;;103.00;33.00;;;;;;;-0.75;91.16;101662.45;660695;1311;139244;-82
2022/12/17 22:08:34;;;;;;;112.30;34.40;;;;;;;-0.50;90.78;101665.93;660655;1312;142082;-82
2022/12/17 22:23:38;;;;;;;82.70;28.80;;;;;;;-0.36;89.81;101685.09;660627;1296;139249;-83
2022/12/17 22:38:42;;;;;;;95.20;34.00;;;;;;;-0.46;89.61;101696.77;660635;1312;139221;-82
2022/12/17 22:54:05;;;;;;;94.20;32.00;;;;;;;-0.87;91.54;101710.95;660657;1311;138602;-83
2022/12/17 23:09:10;;;;;;;114.40;35.00;;;;;;;-0.86;91.77;101728.80;660585;1311;138831;-82
2022/12/17 23:24:14;;;;;;;89.40;28.30;;;;;;;-0.80;92.07;101741.40;660613;1310;139045;-82
2022/12/17 23:39:17;;;;;;;213.90;58.20;;;;;;;-0.71;92.25;101757.06;660756;1298;138453;-82
2022/12/17 23:54:20;;;;;;;458.60;153.00;;;;;;;-0.72;92.36;101775.65;660470;1300;139385;-83
